createdAt,value
2019-04-11T00:02:14.331Z,101927.50
2019-04-11T00:07:22.396Z,101935.49
2019-04-11T00:12:30.520Z,101940.46
2019-04-11T00:17:38.351Z,101938.30
2019-04-11T00:22:44.398Z,101938.30
2019-04-11T00:27:51.443Z,101944.00
2019-04-11T00:32:58.475Z,101947.55
2019-04-11T00:38:05.605Z,101954.68
2019-04-11T00:43:12.452Z,101948.80
2019-04-11T00:48:19.704Z,101948.80
2019-04-11T00:53:27.720Z,101967.27
2019-04-11T00:58:36.006Z,101961.59
2019-04-11T01:03:43.452Z,101960.30
2019-04-11T01:08:51.546Z,101960.30
2019-04-11T01:13:59.483Z,101971.22
2019-04-11T01:19:06.678Z,101977.48
2019-04-11T01:24:13.692Z,101977.48
2019-04-11T01:29:20.697Z,101970.63
2019-04-11T01:34:28.664Z,101975.17
2019-04-11T01:43:11.903Z,101983.67
2019-04-11T01:48:43.938Z,101957.62
2019-04-11T01:53:51.123Z,101978.28
2019-04-11T01:58:59.381Z,101984.68
2019-04-11T02:04:16.048Z,101987.42
2019-04-11T02:09:24.164Z,101985.86
2019-04-11T02:14:31.460Z,101987.70
2019-04-11T02:19:38.532Z,101995.53
2019-04-11T02:24:59.037Z,101999.45
2019-04-11T02:30:08.794Z,101999.45
2019-04-11T02:35:17.704Z,102007.61
2019-04-11T02:40:27.524Z,102007.61
2019-04-11T02:45:46.748Z,102011.98
2019-04-11T02:50:45.727Z,102013.78
2019-04-11T02:55:54.155Z,102010.78
2019-04-11T03:01:05.004Z,102010.78
2019-04-11T03:06:11.172Z,102019.05
2019-04-11T03:11:19.174Z,102015.25
2019-04-11T03:16:39.415Z,102019.91
2019-04-11T03:21:41.312Z,102030.02
2019-04-11T03:26:46.301Z,102040.55
2019-04-11T03:42:29.668Z,102044.10
2019-04-11T03:47:34.820Z,102044.10
2019-04-11T03:52:28.510Z,102045.14
2019-04-11T03:57:37.313Z,102045.34
2019-04-11T04:02:46.583Z,102050.87
2019-04-11T04:07:55.195Z,102043.58
2019-04-11T04:13:05.518Z,102063.21
2019-04-11T04:18:40.360Z,102063.21
2019-04-11T04:23:51.689Z,102072.66
2019-04-11T04:28:59.864Z,102078.72
2019-04-11T04:34:09.103Z,102087.05
2019-04-11T04:39:17.427Z,102087.05
2019-04-11T04:44:26.320Z,102077.69
2019-04-11T04:49:34.512Z,102077.69
2019-04-11T04:54:44.343Z,102095.52
2019-04-11T04:59:53.146Z,102107.64
2019-04-11T05:05:03.783Z,102107.64
2019-04-11T05:10:11.266Z,102112.17
2019-04-11T05:15:18.715Z,102107.33
2019-04-11T05:20:25.567Z,102114.73
2019-04-11T05:25:32.743Z,102124.39
2019-04-11T05:30:39.843Z,102124.39
2019-04-11T05:35:48.023Z,102134.53
2019-04-11T05:40:56.568Z,102134.38
2019-04-11T05:46:15.855Z,102143.45
2019-04-11T05:51:13.060Z,102149.80
2019-04-11T05:56:23.637Z,102144.27
2019-04-11T06:01:38.338Z,102140.31
2019-04-11T06:06:58.349Z,102140.31
2019-04-11T06:12:22.255Z,102159.36
2019-04-11T06:17:30.146Z,102159.36
2019-04-11T06:22:42.169Z,102165.06
2019-04-11T06:27:55.824Z,102166.28
2019-04-11T06:33:22.719Z,102165.02
2019-04-11T06:39:00.060Z,102178.63
2019-04-11T06:44:25.748Z,102179.06
2019-04-11T06:49:38.453Z,102172.08
2019-04-11T06:55:14.838Z,102189.03
2019-04-11T07:00:23.089Z,102189.03
2019-04-11T07:05:33.183Z,102179.41
2019-04-11T07:10:48.905Z,102190.39
2019-04-11T07:15:57.411Z,102187.02
2019-04-11T07:21:08.490Z,102192.98
2019-04-11T07:26:21.319Z,102192.06
2019-04-11T07:31:58.658Z,102196.91
2019-04-11T07:37:23.616Z,102188.14
2019-04-11T07:42:49.598Z,102182.51
2019-04-11T07:48:11.324Z,102183.92
2019-04-11T07:53:18.252Z,102194.36
2019-04-11T07:58:40.595Z,102194.71
2019-04-11T08:03:58.634Z,102188.05
2019-04-11T08:09:26.771Z,102186.28
2019-04-11T08:15:10.699Z,102186.28
2019-04-11T08:20:42.285Z,102186.09
2019-04-11T08:26:14.262Z,102184.92
2019-04-11T08:31:40.258Z,102188.09
2019-04-11T08:37:05.521Z,102188.82
2019-04-11T08:42:31.701Z,102187.42
2019-04-11T08:47:49.268Z,102190.69
2019-04-11T08:53:11.256Z,102198.15
2019-04-11T08:58:40.589Z,102203.80
2019-04-11T09:04:12.100Z,102205.88
2019-04-11T09:09:29.396Z,102196.55
2019-04-11T09:14:57.242Z,102190.48
2019-04-11T09:20:33.832Z,102184.16
2019-04-11T09:25:59.519Z,102192.59
2019-04-11T09:31:29.626Z,102189.29
2019-04-11T09:36:45.169Z,102181.70
2019-04-11T09:42:11.595Z,102187.54
2019-04-11T09:47:40.592Z,102194.64
2019-04-11T09:52:47.478Z,102194.64
2019-04-11T09:57:59.684Z,102185.06
2019-04-11T10:03:15.409Z,102188.23
2019-04-11T10:08:39.718Z,102184.83
2019-04-11T10:14:10.592Z,102188.52
2019-04-11T10:19:24.445Z,102184.83
2019-04-11T10:24:39.400Z,102191.64
2019-04-11T10:30:08.629Z,102191.64
2019-04-11T10:35:38.596Z,102182.80
2019-04-11T10:41:08.254Z,102192.73
2019-04-11T10:46:42.261Z,102186.55
2019-04-11T10:52:09.884Z,102192.70
2019-04-11T10:57:34.242Z,102190.03
2019-04-11T11:03:04.491Z,102193.94
2019-04-11T11:08:31.217Z,102193.33
2019-04-11T11:13:50.030Z,102193.76
2019-04-11T11:19:37.206Z,102200.59
2019-04-11T11:24:46.309Z,102207.36
2019-04-11T11:30:12.744Z,102199.19
2019-04-11T11:35:32.155Z,102199.19
2019-04-11T11:41:03.906Z,102203.41
2019-04-11T11:46:40.194Z,102204.89
2019-04-11T11:52:04.733Z,102206.80
2019-04-11T11:57:23.571Z,102211.92
2019-04-11T12:02:45.054Z,102208.08
2019-04-11T12:08:04.192Z,102208.08
2019-04-11T12:13:43.707Z,102215.08
2019-04-11T12:19:22.226Z,102221.93
2019-04-11T12:24:43.367Z,102227.73
2019-04-11T12:30:05.369Z,102221.58
2019-04-11T12:35:18.420Z,102221.58
2019-04-11T12:40:43.382Z,102227.48
2019-04-11T12:46:29.710Z,102223.34
2019-04-11T12:51:51.275Z,102219.02
2019-04-11T12:57:20.254Z,102221.77
2019-04-11T13:02:46.279Z,102212.55
2019-04-11T13:08:17.258Z,102205.22
2019-04-11T13:13:39.068Z,102214.30
2019-04-11T13:19:04.738Z,102209.61
2019-04-11T13:24:28.570Z,102208.47
2019-04-11T13:30:03.615Z,102214.23
2019-04-11T13:35:30.352Z,102223.55
2019-04-11T13:40:59.693Z,102223.55
2019-04-11T13:46:24.243Z,102217.75
2019-04-11T13:51:42.111Z,102215.69
2019-04-11T13:56:59.571Z,102209.37
2019-04-11T14:02:14.582Z,102213.98
2019-04-11T14:07:23.644Z,102213.98
2019-04-11T14:12:29.309Z,102213.45
2019-04-11T14:18:04.916Z,102206.38
2019-04-11T14:23:30.264Z,102203.19
2019-04-11T14:28:41.250Z,102204.94
2019-04-11T14:33:55.631Z,102198.44
2019-04-11T14:39:02.575Z,102197.30
2019-04-11T14:44:11.456Z,102202.72
2019-04-11T14:49:19.570Z,102204.87
2019-04-11T14:54:49.811Z,102204.51
2019-04-11T15:00:04.712Z,102204.51
2019-04-11T15:05:20.536Z,102211.91
2019-04-11T15:10:48.286Z,102208.91
2019-04-11T15:16:11.107Z,102208.48
2019-04-11T15:21:36.997Z,102200.79
2019-04-11T15:27:01.512Z,102202.70
2019-04-11T15:32:42.437Z,102208.47
2019-04-11T15:38:08.977Z,102213.02
2019-04-11T15:43:43.226Z,102213.92
2019-04-11T15:49:19.653Z,102209.53
2019-04-11T15:54:42.069Z,102210.70
2019-04-11T16:00:07.739Z,102214.76
2019-04-11T16:05:49.248Z,102213.84
2019-04-11T16:11:06.332Z,102217.52
2019-04-11T16:16:13.440Z,102215.36
2019-04-11T16:21:24.965Z,102218.53
2019-04-11T16:26:41.424Z,102219.69
2019-04-11T16:31:48.555Z,102230.78
2019-04-11T16:36:58.250Z,102230.84
2019-04-11T16:42:06.839Z,102229.64
2019-04-11T16:47:31.249Z,102234.24
2019-04-11T16:52:38.580Z,102225.66
2019-04-11T16:57:46.405Z,102235.66
2019-04-11T17:02:54.954Z,102234.97
2019-04-11T17:08:25.762Z,102243.76
2019-04-11T17:13:32.774Z,102243.76
2019-04-11T17:18:39.840Z,102242.33
2019-04-11T17:23:47.707Z,102241.92
2019-04-11T17:28:55.075Z,102249.66
2019-04-11T17:34:02.789Z,102247.77
2019-04-11T17:39:11.298Z,102263.52
2019-04-11T17:44:20.252Z,102263.05
2019-04-11T17:49:27.591Z,102269.42
2019-04-11T17:54:36.028Z,102281.38
2019-04-11T17:59:43.432Z,102281.38
2019-04-11T18:04:50.488Z,102297.45
2019-04-11T18:09:59.674Z,102295.17
2019-04-11T18:15:07.517Z,102307.51
2019-04-11T18:20:14.482Z,102307.51
2019-04-11T18:25:21.574Z,102317.42
2019-04-11T18:30:28.569Z,102320.21
2019-04-11T18:35:35.581Z,102323.73
2019-04-11T18:40:41.486Z,102326.36
2019-04-11T18:45:48.546Z,102337.80
2019-04-11T18:50:55.448Z,102336.97
2019-04-11T18:56:01.716Z,102335.41
2019-04-11T19:01:09.719Z,102344.73
2019-04-11T19:06:27.239Z,102343.36
2019-04-11T19:11:24.535Z,102342.84
2019-04-11T19:16:34.400Z,102339.39
2019-04-11T19:21:41.430Z,102338.02
2019-04-11T19:26:48.755Z,102342.80
2019-04-11T19:31:55.976Z,102343.31
2019-04-11T19:37:03.761Z,102351.36
2019-04-11T19:42:10.651Z,102341.94
2019-04-11T19:47:21.391Z,102347.45
2019-04-11T19:52:25.281Z,102347.45
2019-04-11T19:57:32.452Z,102350.36
2019-04-11T20:02:39.446Z,102348.77
2019-04-11T20:07:46.560Z,102340.17
2019-04-11T20:12:53.470Z,102344.00
2019-04-11T20:18:00.652Z,102345.94
2019-04-11T20:23:11.018Z,102347.94
2019-04-11T20:28:19.953Z,102347.94
2019-04-11T20:33:27.701Z,102356.84
2019-04-11T20:38:34.990Z,102353.13
2019-04-11T20:43:43.458Z,102353.84
2019-04-11T20:48:51.229Z,102353.62
2019-04-11T20:53:58.442Z,102353.62
2019-04-11T20:59:07.960Z,102350.94
2019-04-11T21:04:14.493Z,102351.15
2019-04-11T21:09:22.409Z,102353.30
2019-04-11T21:14:29.457Z,102356.05
2019-04-11T21:19:36.463Z,102353.50
2019-04-11T21:24:43.452Z,102350.34
2019-04-11T21:29:50.428Z,102351.72
2019-04-11T21:34:57.447Z,102344.18
2019-04-11T21:40:07.473Z,102349.36
2019-04-11T21:45:15.462Z,102350.33
2019-04-11T21:50:22.484Z,102361.96
2019-04-11T21:55:29.457Z,102360.48
2019-04-11T22:00:43.046Z,102356.16
2019-04-11T22:05:51.596Z,102360.42
2019-04-11T22:10:58.479Z,102360.42
2019-04-11T22:16:05.457Z,102367.91
2019-04-11T22:21:12.949Z,102363.27
2019-04-11T22:26:20.643Z,102368.77
2019-04-11T22:31:26.433Z,102363.07
2019-04-11T22:36:32.316Z,102363.07
2019-04-11T22:41:42.991Z,102362.02
2019-04-11T22:47:55.696Z,102358.44
2019-04-11T22:53:04.551Z,102366.23
2019-04-11T22:58:13.938Z,102362.11
2019-04-11T23:03:26.513Z,102363.59
2019-04-11T23:08:33.578Z,102359.56
2019-04-11T23:13:40.488Z,102365.63
2019-04-11T23:18:47.459Z,102365.63
2019-04-11T23:23:54.446Z,102364.59
2019-04-11T23:29:02.490Z,102355.37
2019-04-11T23:34:08.308Z,102358.34
2019-04-11T23:39:15.408Z,102365.31
2019-04-11T23:44:22.479Z,102365.31
2019-04-11T23:49:29.583Z,102360.88
2019-04-11T23:54:36.455Z,102360.53
2019-04-11T23:59:43.473Z,102360.53
